Weather observations for the past three days for
Granite Falls, Granite Falls Municipal Airport/Lenzen-Roe Memorial Field
Imperial (Metric)
Date Time (cdt) Wind (mph) Vis. (mi.) Weather Sky Cond. Temperature (ºF) Relative Humidity Wind Chill (°F) Heat Index (°F) Pressure Precipitation (in)
Air Dwpt 6 hour altimeter (in) sea level (mb) 1 hr 3 hr 6 hr
Max. Min.
02 17:15 SW 14 G 20 10.00 Overcast SCT090 OVC110 68.2 26.6 21% 29.88 0.0
02 16:55 SW 18 G 28 10.00 Mostly Cloudy BKN120 68.2 25.3 20% 29.89 0.0
02 16:35 SW 22 G 28 10.00 Partly Cloudy and Breezy SCT090 SCT120 69.1 25.3 19% 29.89 0.0
02 16:15 SW 20 G 24 10.00 Partly Cloudy SCT090 70.7 25.2 18% 29.9 0.0
02 15:55 SW 20 G 25 10.00 Partly Cloudy SCT090 70 25.5 19% 29.91 0.0
02 15:35 W 16 G 28 10.00 Partly Cloudy SCT090 71.8 27.1 19% 29.92 0.0
02 15:15 W 10 G 21 10.00 Fair CLR 70.5 24.8 18% 29.92 0.0
02 14:55 W 15 G 24 10.00 Fair CLR 69.8 25.5 19% 29.94 0.0
02 14:35 SW 18 G 23 10.00 Fair CLR 70.3 25.3 18% 29.95 0.0
02 14:15 W 16 G 22 10.00 Partly Cloudy SCT085 70.3 25.9 19% 29.95 0.0
02 13:55 SW 13 G 25 10.00 Partly Cloudy SCT085 70 26.6 20% 29.97 0.0
02 13:35 W 16 G 29 10.00 Fair CLR 70.2 27 20% 29.98 0.0
02 13:15 W 21 G 26 10.00 Fair and Breezy CLR 69.3 28 21% 29.98 0.0
02 12:55 W 10 G 24 10.00 Fair CLR 68.5 27.5 68.7 38.1 21% 29.99 0.0
02 12:35 SW 15 G 23 10.00 Fair CLR 67.1 27.5 23% 30 0.0
02 12:15 SW 14 G 21 10.00 Fair CLR 66 28.4 24% 30.01 0.0
02 11:55 SW 14 G 18 10.00 Fair CLR 64.8 27.3 24% 30.03 0.0
02 11:35 SW 14 G 17 10.00 Fair CLR 63.9 27 25% 30.03 0.0
02 11:15 SW 12 G 20 10.00 Fair CLR 63 27.7 26% 30.04 0.0
02 10:55 SW 13 G 16 10.00 Fair CLR 61.2 27.5 28% 30.06 0.0
02 10:35 SW 10 10.00 Fair CLR 59.7 27 29% 30.06 0.0
02 10:15 SW 12 10.00 Fair CLR 58.8 27.5 30% 30.07 0.0
02 09:55 SW 14 G 17 10.00 Fair CLR 57.2 28 33% 30.08 0.0
02 09:35 SW 13 G 17 10.00 Fair CLR 55.2 28.2 36% 30.08 0.0
02 09:15 SW 14 10.00 Fair CLR 53.1 28.4 39% 30.09 0.0
02 08:55 SW 12 G 16 10.00 Fair CLR 50.9 28.9 43% 30.09 0.0
02 08:35 SW 8 10.00 Fair CLR 48 30.2 50% 45 30.1 0.0
02 08:15 SW 9 10.00 Partly Cloudy SCT095 45.7 29.1 52% 42 30.1 0.0
02 07:55 SW 7 10.00 Partly Cloudy SCT095 42.8 29.5 59% 39 30.1 0.0
02 07:35 S 8 10.00 Partly Cloudy SCT095 41 28.9 62% 36 30.1 0.0
02 07:15 S 7 10.00 Partly Cloudy SCT090 38.5 28.4 67% 34 30.1 0.0
02 06:55 SW 7 10.00 Partly Cloudy SCT090 37.4 27.1 37.4 31.5 67% 33 30.11 0.0
02 06:35 SW 8 10.00 Fair CLR 37 26.4 66% 32 30.11 0.0
02 06:15 SW 7 10.00 Fair CLR 33.8 26.2 74% 28 30.11 0.0
02 05:55 SW 6 10.00 Fair CLR 32.2 25.9 78% 27 30.11 0.0
02 05:35 SW 6 10.00 Fair CLR 34.7 25.7 70% 30 30.11 0.0
02 05:15 SW 7 10.00 Fair CLR 34 25.7 72% 29 30.11 0.0
02 04:55 SW 6 10.00 Fair CLR 34 25.7 72% 29 30.11 0.0
02 04:35 SW 6 10.00 Fair CLR 33.3 25.7 74% 29 30.12 0.0
02 04:15 SW 6 10.00 Fair CLR 34.7 26.4 72% 30 30.12 0.0
02 03:55 SW 6 10.00 Fair CLR 34.7 26.2 71% 30 30.11 0.0
02 03:35 SW 6 10.00 Fair CLR 34.7 26.1 71% 30 30.11 0.0
02 03:15 SW 7 10.00 Fair CLR 34.2 26.6 74% 29 30.11 0.0
02 02:55 SW 6 10.00 Fair CLR 32 25.5 77% 27 30.11 0.0
02 02:35 SW 5 10.00 Fair CLR 34.7 25.9 70% 31 30.11 0.0
02 02:15 W 6 10.00 Fair CLR 33.6 26.2 74% 29 30.12 0.0
02 01:55 SW 8 10.00 Fair CLR 35.4 26.6 70% 30 30.13 0.0
02 01:35 W 6 10.00 Fair CLR 34.7 26.2 71% 30 30.13 0.0
02 01:15 W 5 10.00 Fair CLR 34.7 26.4 72% 31 30.13 0.0
02 00:55 W 3 10.00 Fair CLR 34.5 26.6 54.5 34.3 73% 30.13 0.0
02 00:35 W 5 10.00 Fair CLR 34.9 27 73% 31 30.13 0.0
02 00:15 W 6 10.00 Fair CLR 36.5 27.3 69% 32 30.13 0.0
01 23:55 W 6 10.00 Fair CLR 36.5 27.1 69% 32 30.13 0.0
01 23:35 W 5 10.00 Fair CLR 37.4 27.3 67% 34 30.13 0.0
01 23:15 W 6 10.00 Fair CLR 37.4 27 66% 33 30.13 0.0
01 22:55 W 5 10.00 Fair CLR 38.3 26.8 63% 35 30.13 0.0
01 22:35 W 6 10.00 Fair CLR 41 26.6 57% 38 30.14 0.0
01 22:15 W 5 10.00 Fair CLR 41.2 26.4 56% 39 30.13 0.0
01 21:55 W 7 10.00 Fair CLR 42.1 26.2 54% 38 30.13 0.0
01 21:35 W 6 10.00 Fair CLR 43.5 26.1 50% 41 30.13 0.0
01 21:15 W 7 10.00 Fair CLR 44.6 24.8 46% 41 30.13 0.0
01 20:55 NW 7 10.00 Fair CLR 45.9 24.8 44% 43 30.12 0.0
01 20:35 NW 6 10.00 Fair CLR 48.9 25.7 40% 47 30.11 0.0
01 20:15 NW 7 10.00 Fair CLR 50.5 24.1 36% 30.11 0.0
01 19:55 NW 7 10.00 Fair CLR 52.2 20.8 29% 30.11 0.0
01 19:35 NW 7 10.00 Partly Cloudy SCT070 52.9 21.4 29% 30.1 0.0
01 19:15 NW 9 10.00 Fair CLR 52.9 22.1 30% 30.1 0.0
01 18:55 N 7 10.00 Fair CLR 54.5 20.3 56.1 49.6 26% 30.1 0.0
01 18:35 NW 7 10.00 Fair CLR 54.5 19.9 26% 30.1 0.0
01 18:15 NW 5 10.00 Partly Cloudy SCT070 52.9 20.3 28% 30.11 0.0
01 17:55 NW 12 10.00 Partly Cloudy SCT070 55.6 21.7 27% 30.1 0.0
01 17:35 N 8 10.00 Partly Cloudy SCT070 55 21.4 27% 30.1 0.0
01 17:15 N 7 10.00 Partly Cloudy SCT070 52 22.3 31% 30.11 0.0
01 16:55 NE 5 10.00 Mostly Cloudy BKN070 52.3 21.4 30% 30.11 0.0
01 16:35 W 8 G 18 10.00 Mostly Cloudy BKN070 55.8 23.7 29% 30.11 0.0
01 16:15 W 7 10.00 Partly Cloudy SCT070 55.4 24.4 30% 30.11 0.0
01 15:55 NW 9 10.00 Fair CLR 54.1 24.8 32% 30.12 0.0
01 15:35 N 8 10.00 Partly Cloudy SCT060 51.6 25.5 36% 30.13 0.0
01 15:15 N 5 10.00 Mostly Cloudy BKN060 50.5 24.8 37% 30.13 0.0
01 14:55 N 7 10.00 Mostly Cloudy BKN060 BKN070 53.4 28.4 38% 30.13 0.0
01 14:35 N 8 10.00 Overcast OVC050 50.5 26.2 39% 30.14 0.0
01 14:15 NW 9 G 16 10.00 Overcast OVC050 50.2 26.4 40% 30.14 0.0
01 13:55 N 9 G 16 10.00 Mostly Cloudy BKN050 51.4 24.8 35% 30.14 0.0
01 13:35 N 12 G 17 10.00 Mostly Cloudy BKN050 51.4 28.2 41% 30.14 0.0
01 13:15 NW 12 G 17 10.00 Mostly Cloudy BKN050 50.5 28.8 43% 30.14 0.0
01 12:55 N 8 G 16 10.00 Mostly Cloudy BKN050 50 27.5 50 33.1 42% 47 30.14 0.0
01 12:35 N 12 G 16 10.00 Overcast OVC050 49.1 26.8 42% 45 30.14 0.0
01 12:15 NW 13 10.00 Overcast OVC050 49.1 27.1 43% 45 30.14 0.0
01 11:55 N 12 10.00 Mostly Cloudy BKN050 47.8 27.1 45% 43 30.15 0.0
01 11:35 N 7 G 16 10.00 Partly Cloudy SCT048 48.2 27.3 44% 46 30.15 0.0
01 11:15 N 7 10.00 Fair CLR 47.3 30.7 53% 44 30.14 0.0
01 10:55 N 7 10.00 Fair CLR 46.8 32 57% 44 30.14 0.0
01 10:35 N 6 10.00 Partly Cloudy SCT055 45.3 31.8 59% 43 30.14 0.0
01 10:15 N 6 10.00 Mostly Cloudy BKN055 44.6 32.2 62% 42 30.14 0.0
01 09:55 N 6 10.00 Mostly Cloudy BKN055 42.3 31.8 67% 39 30.14 0.0
01 09:35 NW 6 10.00 Mostly Cloudy BKN055 41.5 32 69% 38 30.14 0.0
01 09:15 NW 6 10.00 Partly Cloudy SCT055 41.2 31.8 69% 38 30.14 0.0
01 08:55 N 6 10.00 Fair CLR 40.3 31.5 71% 37 30.14 0.0
01 08:35 NW 7 10.00 Fair CLR 38.7 31.5 75% 34 30.13 0.0
01 08:15 NW 9 10.00 Fair CLR 37 31.1 79% 31 30.13 0.0
01 07:55 NW 12 10.00 Fair CLR 35.6 30 80% 28 30.13 0.0
01 07:35 NW 10 10.00 Fair CLR 34.7 29.7 82% 28 30.12 0.0
01 07:15 NW 9 10.00 Fair CLR 34 29.3 83% 27 30.11 0.0
01 06:55 NW 9 10.00 Fair CLR 32.9 28.9 41.9 32.5 85% 26 30.11 0.0
01 06:35 NW 8 10.00 Fair CLR 32.7 28.9 86% 26 30.1 0.0
01 06:15 NW 9 10.00 Fair CLR 33.1 29.1 85% 26 30.09 0.0
01 05:55 NW 8 10.00 Fair CLR 33.4 29.1 84% 27 30.09 0.0
01 05:35 NW 8 10.00 Fair CLR 34 29.1 82% 28 30.09 0.0
01 05:15 NW 8 10.00 Partly Cloudy SCT065 34.7 29.1 80% 29 30.09 0.0
01 04:55 NW 6 10.00 Mostly Cloudy BKN065 35.6 29.7 79% 31 30.09 0.0
01 04:35 NW 5 10.00 Mostly Cloudy BKN065 37.4 29.8 74% 34 30.08 0.0
01 04:15 NW 7 10.00 Overcast OVC065 38.3 30.4 73% 34 30.08 0.0
01 03:55 NW 7 10.00 Overcast OVC065 38.8 31.1 74% 34 30.08 0.0
01 03:35 NW 8 10.00 Mostly Cloudy BKN050 BKN070 38.5 30.9 74% 33 30.08 0.0
01 03:15 N 9 10.00 Fair CLR 37.8 30.7 76% 32 30.07 0.0
01 02:55 N 9 10.00 Fair CLR 38.5 31.1 75% 33 30.07 0.0
01 02:35 N 10 10.00 Partly Cloudy SCT055 SCT075 40.1 32 73% 34 30.07 0.0
01 02:15 N 10 10.00 Mostly Cloudy BKN065 BKN075 41.2 32.2 70% 36 30.08 0.0
01 01:55 N 10 10.00 Overcast OVC060 41.9 33.6 73% 36 30.08 0.0
01 01:35 NW 7 10.00 Overcast BKN050 BKN060 OVC075 41 36.9 85% 37 30.07 0.0
01 01:15 W 7 10.00 Overcast BKN050 OVC085 40.3 37.8 91% 36 30.07 0.0
01 00:55 W 6 10.00 Overcast SCT050 OVC085 40.5 38.3 47.1 40.1 92% 37 30.07 0.0
01 00:35 W 3 10.00 Overcast SCT048 SCT060 OVC085 40.5 38.7 93% 30.07 0.0
01 00:15 W 3 7.00 Overcast OVC075 40.1 38.3 93% 30.07 0.0
30 23:55 W 5 10.00 Overcast SCT065 BKN075 OVC090 40.3 38.5 93% 38 30.07 0.0
30 23:35 W 3 10.00 Overcast BKN080 OVC100 40.1 37.9 92% 30.07 0.0
30 23:15 Calm 10.00 Overcast BKN080 OVC100 40.8 38.3 91% 30.07 0.0
30 22:55 Calm 10.00 Overcast SCT038 BKN080 OVC110 42.1 38.5 87% 30.07 0.0
30 22:35 Calm 10.00 Overcast SCT038 BKN080 OVC110 42.3 39.2 89% 30.07 0.0
30 22:15 Calm 10.00 Mostly Cloudy BKN090 42.1 38.3 87% 30.06 0.0
30 21:55 Calm 10.00 Light Drizzle SCT080 OVC090 42.8 38.5 85% 30.06 0.0
30 21:35 SW 5 10.00 Light Rain SCT031 BKN050 OVC080 43.7 37.9 80% 42 30.06 0.0
30 21:15 Calm 10.00 Light Rain BKN037 OVC048 43.7 38.1 81% 30.06 0.0
30 20:55 Calm 10.00 Light Rain SCT032 BKN042 OVC090 43.7 37.4 79% 30.05 0.0
30 20:35 Calm 10.00 Mostly Cloudy BKN080 43.7 37.4 79% 30.05 0.0
30 20:15 NE 5 10.00 Mostly Cloudy SCT012 BKN080 43.5 37.6 80% 41 30.05 0.0
30 19:55 NE 10 10.00 Partly Cloudy SCT012 44.1 37.2 77% 39 30.04 0.0
30 19:35 NE 8 10.00 Partly Cloudy SCT055 SCT075 46.4 39.2 76% 43 30.04 0.0
30 19:15 NE 6 10.00 Overcast BKN055 BKN065 OVC085 46.6 39.4 76% 44 30.04 0.0
30 18:55 N 6 10.00 Mostly Cloudy SCT044 SCT060 BKN075 46.9 39.2 55.9 46 75% 45 30.04 0.0 0.01 0.01
30 18:35 NW 10 10.00 Light Rain SCT025 BKN042 OVC055 46.4 39.4 77% 42 30.06 0.0 0.01
30 18:15 NW 9 10.00 Light Rain SCT031 BKN040 OVC055 48.2 37 65% 45 30.06 0.0
30 17:55 NE 10 10.00 Overcast BKN060 OVC070 48.2 35.8 62% 44 30.03 0.0
30 17:35 NE 9 10.00 Overcast BKN050 OVC070 48.4 34.9 60% 45 30.03 0.0
30 17:15 NE 12 G 17 10.00 Mostly Cloudy BKN048 BKN060 BKN075 51.1 33.6 51% 30.03 0.0
30 16:55 W 13 G 16 10.00 Mostly Cloudy BKN050 BKN065 BKN080 55.9 32 40% 30.04 0.0
30 16:35 W 18 10.00 Partly Cloudy SCT050 SCT075 52.7 30 42% 30.05 0.0
30 16:15 W 6 10.00 Mostly Cloudy SCT031 SCT039 BKN080 53.2 32.2 45% 30.06 0.0
30 15:55 W 14 G 26 10.00 Mostly Cloudy SCT037 SCT045 BKN055 50.4 32.5 51% 30.07 0.0
30 15:35 W 15 G 24 10.00 Mostly Cloudy BKN060 BKN070 54 28.2 37% 30.07 0.0
30 15:15 NW 10 G 17 10.00 Partly Cloudy SCT050 SCT070 SCT080 55.2 27.5 34% 30.07 0.0
30 14:55 W 3 10.00 Partly Cloudy SCT050 SCT075 SCT080 54.1 28.8 38% 30.08 0.0
30 14:35 N 9 G 16 10.00 Mostly Cloudy SCT050 BKN075 BKN085 51.6 27.3 39% 30.09 0.0
30 14:15 NW 10 G 18 10.00 Mostly Cloudy SCT050 BKN080 52.9 29.1 40% 30.09 0.0
30 13:55 NW 10 10.00 Mostly Cloudy SCT050 BKN070 BKN085 52 28.9 41% 30.1 0.0
30 13:35 NW 13 G 18 10.00 Overcast BKN070 OVC085 50 28.2 43% 46 30.11 0.0
30 13:15 NW 10 G 16 10.00 Mostly Cloudy SCT070 BKN085 49.8 28.6 44% 46 30.12 0.0
30 12:55 NW 14 G 17 10.00 Partly Cloudy SCT060 SCT085 51.1 28.9 51.1 34 43% 30.13 0.0
30 12:35 NW 10 10.00 Mostly Cloudy SCT070 BKN085 48.4 27.5 44% 44 30.13 0.0
30 12:15 NW 8 10.00 Mostly Cloudy BKN070 BKN085 47.3 28.4 48% 44 30.14 0.0
30 11:55 NW 9 10.00 Overcast BKN070 OVC085 46.9 27.9 48% 43 30.14 0.0
30 11:35 N 12 G 16 10.00 Mostly Cloudy SCT070 BKN085 48 30 50% 44 30.15 0.0
30 11:15 N 9 10.00 Mostly Cloudy BKN070 46.8 28.8 50% 43 30.15 0.0
30 10:55 NW 12 10.00 Overcast OVC070 45 28 52% 40 30.15 0.0
30 10:35 N 9 10.00 Mostly Cloudy BKN060 45 28.2 52% 41 30.14 0.0
30 10:15 N 12 G 16 10.00 Fair CLR 44.2 27.9 53% 39 30.15 0.0
30 09:55 N 10 10.00 Partly Cloudy SCT080 42.3 26.6 54% 37 30.14 0.0
30 09:35 N 12 10.00 Fair CLR 42.6 27.1 54% 37 30.14 0.0
30 09:15 N 10 10.00 Fair CLR 41.5 27.5 58% 36 30.14 0.0
30 08:55 NW 9 10.00 Fair CLR 40.1 27.3 60% 35 30.14 0.0
30 08:35 N 12 10.00 Fair CLR 40.1 27 59% 34 30.15 0.0
30 08:15 N 9 10.00 Fair CLR 38.7 27 63% 33 30.14 0.0
30 07:55 NW 8 10.00 Fair CLR 38.3 28.6 68% 33 30.14 0.0
30 07:35 NW 6 10.00 Fair CLR 36.9 28.8 73% 33 30.14 0.0
30 07:15 NW 7 10.00 Fair CLR 35.1 28.8 78% 30 30.14 0.0
30 06:55 NW 7 10.00 Fair CLR 34 28 44.1 33.6 79% 29 30.14 0.0
30 06:35 NW 6 10.00 Fair CLR 34.5 27.7 76% 30 30.13 0.0
30 06:15 NW 5 10.00 Fair CLR 34.7 27.7 76% 31 30.13 0.0
30 05:55 NW 6 10.00 Fair CLR 35.4 27.9 74% 31 30.13 0.0
30 05:35 NW 7 10.00 Fair CLR 36.5 28.2 72% 32 30.13 0.0
30 05:15 NW 7 10.00 Fair CLR 36.5 28.4 73% 32 30.13 0.0
30 04:55 NW 6 10.00 Fair CLR 36.5 29.7 76% 32 30.13 0.0
30 04:35 NW 7 10.00 Partly Cloudy SCT075 36.9 30.2 77% 32 30.13 0.0
30 04:15 NW 6 10.00 Partly Cloudy SCT085 38.3 30.4 73% 34 30.13 0.0
30 03:55 NW 5 10.00 Mostly Cloudy SCT060 SCT070 BKN085 39.2 30.6 71% 36 30.13 0.0
30 03:35 NW 5 10.00 Overcast BKN060 OVC085 40.5 29.7 65% 38 30.13 0.0
30 03:15 NW 5 10.00 Overcast OVC060 41.9 29.8 62% 40 30.12 0.0
30 02:55 N 5 10.00 Overcast BKN060 OVC095 41.9 31.1 66% 40 30.13 0.0
30 02:35 N 6 10.00 Overcast BKN060 OVC090 42.1 29.7 62% 39 30.13 0.0
30 02:15 N 8 10.00 Overcast BKN060 BKN070 OVC085 42.8 30 61% 39 30.13 0.0
30 01:55 NW 3 10.00 Overcast BKN050 BKN070 OVC085 42.8 32 66% 30.13 0.0
30 01:35 N 3 10.00 Overcast OVC050 43.7 31.6 63% 30.13 0.0
30 01:15 N 12 10.00 Overcast OVC050 43.7 31.6 63% 38 30.13 0.0
30 00:55 N 10 10.00 Light Rain OVC050 44.6 30.2 56.3 44.6 57% 40 30.12 0.0
30 00:35 N 9 10.00 Overcast OVC048 46.2 29.7 53% 42 30.11 0.0
30 00:15 N 9 10.00 Overcast SCT050 BKN065 OVC090 46.6 30.4 53% 43 30.1 0.0
29 23:55 N 9 10.00 Overcast SCT060 OVC085 47.3 30.4 52% 43 30.1 0.0
29 23:35 N 10 10.00 Overcast SCT060 BKN075 OVC095 47.8 31.3 53% 44 30.09 0.0
29 23:15 N 9 10.00 Overcast OVC085 48.2 32 54% 45 30.09 0.0
29 22:55 N 7 10.00 Overcast OVC085 48.9 32 52% 46 30.09 0.0
29 22:35 N 7 10.00 Overcast OVC085 49.1 32.5 53% 47 30.09 0.0
29 22:15 N 5 10.00 Overcast SCT070 OVC085 49.1 32.9 54% 48 30.08 0.0
29 21:55 N 7 10.00 Overcast SCT070 OVC085 49.5 33.6 55% 47 30.08 0.0
29 21:35 N 5 10.00 Overcast BKN070 BKN085 OVC120 50.5 33.1 51% 30.07 0.0
29 21:15 N 8 10.00 Mostly Cloudy SCT070 SCT085 BKN120 50 32.7 52% 47 30.06 0.0
29 20:55 N 7 10.00 Overcast SCT070 OVC110 50.9 32.4 49% 30.05 0.0
29 20:35 N 7 10.00 Overcast BKN070 BKN080 OVC110 52.3 32.9 48% 30.04 0.0
29 20:15 NE 8 10.00 Overcast BKN070 OVC085 53.6 32.2 44% 30.04 0.0
29 19:55 NW 3 10.00 Overcast BKN070 OVC090 54.5 32.5 43% 30.03 0.0
29 19:35 N 6 10.00 Overcast SCT070 BKN085 OVC090 55 30.4 39% 30.03 0.0
29 19:15 W 6 10.00 Overcast SCT060 BKN070 OVC080 56.3 29.1 35% 30.03 0.0
29 18:55 W 7 10.00 Partly Cloudy SCT080 56.8 29.3 59 55 35% 30.03 0.0
29 18:35 NW 5 10.00 Fair CLR 57.6 29.3 34% 30.03 0.0
29 18:15 NW 6 10.00 Fair CLR 57.6 29.7 35% 30.03 0.0
29 17:55 Calm 10.00 Partly Cloudy SCT100 SCT120 56.3 30 37% 30.03 0.0
29 17:35 NW 6 10.00 Mostly Cloudy SCT090 BKN110 57 30.6 37% 30.04 0.0
Date Time (cdt) Wind (mph) Vis. (mi.) Weather Sky Cond. Air Dwpt Max. Min. Relative Humidity Wind Chill (°F) Heat Index (°F) altimeter (in) sea level (mb) 1 hr 3 hr 6 hr
6 hour
Temperature (ºF) Pressure Precipitation (in)